Time;durP1;ratioP1;P1;durP2;ratioP2;P2;SDS_P1;SDS_P2;PMS_P1;PMS_P2;Temp;Humidity;BMP_temperature;BMP_pressure;BME280_temperature;BME280_humidity;BME280_pressure;Samples;Min_cycle;Max_cycle;Signal;HPM_P1;HPM_P2
2023/03/18 00:00:37;;;;;;;0.00;0.00;;;;;;;;;;1730186;28;20725;-62
2023/03/18 00:01:28;;;;;;;0.00;0.00;;;;;;;;;;1735634;28;20932;-62
2023/03/18 00:02:20;;;;;;;0.00;0.00;;;;;;;;;;1739045;28;20538;-62
2023/03/18 00:03:11;;;;;;;0.00;0.00;;;;;;;;;;1736237;28;20679;-62
2023/03/18 00:04:04;;;;;;;0.00;0.00;;;;;;;;;;1733099;28;20627;-62
2023/03/18 00:04:55;;;;;;;0.00;0.00;;;;;;;;;;1737199;28;20575;-62
2023/03/18 00:05:47;;;;;;;0.00;0.00;;;;;;;;;;1733273;28;20322;-62
2023/03/18 00:06:39;;;;;;;0.00;0.00;;;;;;;;;;1736463;28;20215;-62
2023/03/18 00:07:30;;;;;;;0.00;0.00;;;;;;;;;;1737945;28;20214;-63
2023/03/18 00:08:22;;;;;;;0.00;0.00;;;;;;;;;;1738044;28;20273;-61
2023/03/18 00:09:14;;;;;;;0.00;0.00;;;;;;;;;;1732472;28;20208;-60
2023/03/18 00:10:06;;;;;;;0.00;0.00;;;;;;;;;;1734889;28;20212;-62
2023/03/18 00:10:59;;;;;;;0.00;0.00;;;;;;;;;;1726345;28;20236;-62
2023/03/18 00:11:52;;;;;;;0.00;0.00;;;;;;;;;;1737131;28;20228;-62
2023/03/18 00:12:45;;;;;;;0.00;0.00;;;;;;;;;;1733522;28;20212;-62
2023/03/18 00:13:36;;;;;;;0.00;0.00;;;;;;;;;;1736758;28;20673;-62
2023/03/18 00:14:28;;;;;;;0.00;0.00;;;;;;;;;;1733126;28;20648;-61
2023/03/18 00:15:20;;;;;;;0.00;0.00;;;;;;;;;;1737246;28;20349;-62
2023/03/18 00:16:12;;;;;;;0.00;0.00;;;;;;;;;;1729268;28;20225;-60
2023/03/18 00:17:03;;;;;;;0.00;0.00;;;;;;;;;;1736425;28;20723;-62
2023/03/18 00:17:58;;;;;;;0.00;0.00;;;;;;;;;;1737100;28;20251;-62
2023/03/18 00:18:49;;;;;;;0.00;0.00;;;;;;;;;;1734888;28;20361;-62
2023/03/18 00:19:41;;;;;;;0.00;0.00;;;;;;;;;;1735110;28;20231;-62
2023/03/18 00:20:37;;;;;;;0.00;0.00;;;;;;;;;;1735031;28;20239;-60
2023/03/18 00:21:29;;;;;;;0.00;0.00;;;;;;;;;;1735665;28;20205;-62
2023/03/18 00:22:20;;;;;;;0.00;0.00;;;;;;;;;;1738620;28;20211;-61
2023/03/18 00:23:11;;;;;;;0.00;0.00;;;;;;;;;;1737449;28;20269;-62
2023/03/18 00:24:04;;;;;;;0.00;0.00;;;;;;;;;;1733169;28;20650;-63
2023/03/18 00:24:55;;;;;;;0.00;0.00;;;;;;;;;;1736830;28;20280;-62
2023/03/18 00:25:47;;;;;;;0.00;0.00;;;;;;;;;;1733157;28;20297;-63
2023/03/18 00:26:38;;;;;;;0.00;0.00;;;;;;;;;;1736254;28;20208;-62
2023/03/18 00:27:32;;;;;;;0.00;0.00;;;;;;;;;;1737880;28;20207;-62
2023/03/18 00:28:24;;;;;;;0.00;0.00;;;;;;;;;;1737935;28;20788;-62
2023/03/18 00:29:16;;;;;;;0.00;0.00;;;;;;;;;;1732423;28;20299;-62
2023/03/18 00:30:07;;;;;;;0.00;0.00;;;;;;;;;;1737238;28;20306;-61
2023/03/18 00:31:03;;;;;;;0.00;0.00;;;;;;;;;;1732332;28;20314;-62
2023/03/18 00:31:55;;;;;;;0.00;0.00;;;;;;;;;;1737302;28;20238;-61
2023/03/18 00:32:47;;;;;;;0.00;0.00;;;;;;;;;;1737261;28;20682;-60
2023/03/18 00:33:39;;;;;;;0.00;0.00;;;;;;;;;;1736242;28;20235;-62
2023/03/18 00:34:32;;;;;;;0.00;0.00;;;;;;;;;;1733895;28;21053;-62
2023/03/18 00:35:23;;;;;;;0.00;0.00;;;;;;;;;;1736144;28;20212;-62
2023/03/18 00:36:17;;;;;;;0.00;0.00;;;;;;;;;;1734979;28;20207;-62
2023/03/18 00:37:09;;;;;;;0.00;0.00;;;;;;;;;;1737194;28;20215;-62
2023/03/18 00:38:02;;;;;;;0.00;0.00;;;;;;;;;;1736949;28;20203;-62
2023/03/18 00:38:56;;;;;;;0.00;0.00;;;;;;;;;;1732177;28;20611;-62
2023/03/18 00:39:48;;;;;;;0.00;0.00;;;;;;;;;;1732803;28;20212;-62
2023/03/18 00:40:51;;;;;;;0.00;0.00;;;;;;;;;;1726871;28;20243;-62
2023/03/18 00:41:43;;;;;;;0.00;0.00;;;;;;;;;;1736682;28;20231;-62
2023/03/18 00:42:41;;;;;;;0.00;0.00;;;;;;;;;;1737184;28;20272;-62
2023/03/18 00:43:44;;;;;;;0.00;0.00;;;;;;;;;;1734739;28;20204;-62
2023/03/18 00:44:35;;;;;;;0.00;0.00;;;;;;;;;;1734290;28;20550;-62
2023/03/18 00:45:28;;;;;;;0.00;0.00;;;;;;;;;;1735757;28;20218;-62
2023/03/18 00:46:21;;;;;;;0.00;0.00;;;;;;;;;;1735574;28;20242;-62
2023/03/18 00:47:13;;;;;;;0.00;0.00;;;;;;;;;;1735910;28;20667;-62
2023/03/18 00:48:04;;;;;;;0.00;0.00;;;;;;;;;;1736707;28;20495;-62
2023/03/18 00:48:57;;;;;;;0.00;0.00;;;;;;;;;;1734107;28;20197;-62
2023/03/18 00:49:48;;;;;;;0.00;0.00;;;;;;;;;;1735899;28;20211;-62
2023/03/18 00:50:40;;;;;;;0.00;0.00;;;;;;;;;;1734049;28;20285;-62
2023/03/18 00:51:32;;;;;;;0.00;0.00;;;;;;;;;;1735452;28;20211;-62
2023/03/18 00:52:24;;;;;;;0.00;0.00;;;;;;;;;;1732000;28;20296;-61
2023/03/18 00:53:15;;;;;;;0.00;0.00;;;;;;;;;;1738115;28;20611;-62
2023/03/18 00:54:09;;;;;;;0.00;0.00;;;;;;;;;;1732341;28;20257;-61
2023/03/18 00:55:00;;;;;;;0.00;0.00;;;;;;;;;;1737659;28;20272;-62
2023/03/18 00:55:52;;;;;;;0.00;0.00;;;;;;;;;;1733262;28;20654;-62
2023/03/18 00:56:43;;;;;;;0.00;0.00;;;;;;;;;;1737418;28;20215;-62
2023/03/18 00:57:36;;;;;;;0.00;0.00;;;;;;;;;;1737474;28;20203;-61
2023/03/18 00:58:29;;;;;;;0.00;0.00;;;;;;;;;;1737781;28;20247;-62
2023/03/18 00:59:20;;;;;;;0.00;0.00;;;;;;;;;;1733948;28;20408;-61
2023/03/18 01:00:15;;;;;;;0.00;0.00;;;;;;;;;;1737788;28;20222;-61
2023/03/18 01:01:07;;;;;;;0.00;0.00;;;;;;;;;;1733826;28;20239;-62
2023/03/18 01:01:59;;;;;;;0.00;0.00;;;;;;;;;;1736511;28;20322;-62
2023/03/18 01:02:50;;;;;;;0.00;0.00;;;;;;;;;;1737608;28;20273;-62
2023/03/18 01:03:42;;;;;;;0.00;0.00;;;;;;;;;;1736628;28;20212;-62
2023/03/18 01:04:34;;;;;;;0.00;0.00;;;;;;;;;;1734437;28;20215;-62
2023/03/18 01:05:26;;;;;;;0.00;0.00;;;;;;;;;;1736656;28;20211;-62
2023/03/18 01:06:18;;;;;;;0.00;0.00;;;;;;;;;;1735572;28;20207;-62
2023/03/18 01:07:11;;;;;;;0.00;0.00;;;;;;;;;;1737850;28;20215;-62
2023/03/18 01:08:03;;;;;;;0.00;0.00;;;;;;;;;;1737526;28;20216;-62
2023/03/18 01:08:56;;;;;;;0.00;0.00;;;;;;;;;;1734647;28;20643;-62
2023/03/18 01:09:47;;;;;;;0.00;0.00;;;;;;;;;;1736572;28;20618;-62
2023/03/18 01:10:38;;;;;;;0.00;0.00;;;;;;;;;;1728747;28;20408;-62
2023/03/18 01:11:30;;;;;;;0.00;0.00;;;;;;;;;;1734223;28;20290;-62
2023/03/18 01:12:21;;;;;;;0.00;0.00;;;;;;;;;;1739008;28;20272;-60
2023/03/18 01:13:15;;;;;;;0.00;0.00;;;;;;;;;;1736520;28;20211;-61
2023/03/18 01:14:06;;;;;;;0.00;0.00;;;;;;;;;;1733037;28;20699;-62
2023/03/18 01:14:58;;;;;;;0.00;0.00;;;;;;;;;;1737385;28;20551;-61
2023/03/18 01:15:49;;;;;;;0.00;0.00;;;;;;;;;;1733444;28;20309;-62
2023/03/18 01:16:41;;;;;;;0.00;0.00;;;;;;;;;;1736634;28;20199;-62
2023/03/18 01:17:32;;;;;;;0.00;0.00;;;;;;;;;;1737812;28;20214;-62
2023/03/18 01:18:24;;;;;;;0.00;0.00;;;;;;;;;;1738464;28;20229;-61
2023/03/18 01:19:15;;;;;;;0.00;0.00;;;;;;;;;;1732713;28;20212;-62
2023/03/18 01:20:08;;;;;;;0.00;0.00;;;;;;;;;;1738444;28;20211;-62
2023/03/18 01:20:59;;;;;;;0.00;0.00;;;;;;;;;;1731122;28;20629;-62
2023/03/18 01:21:51;;;;;;;0.00;0.00;;;;;;;;;;1730615;28;20217;-62
2023/03/18 01:22:43;;;;;;;0.00;0.00;;;;;;;;;;1730749;28;20209;-62
2023/03/18 01:23:35;;;;;;;0.00;0.00;;;;;;;;;;1736258;28;20234;-62
2023/03/18 01:24:27;;;;;;;0.00;0.00;;;;;;;;;;1733451;28;20211;-61
2023/03/18 01:25:19;;;;;;;0.00;0.00;;;;;;;;;;1737397;28;20203;-62
2023/03/18 01:26:11;;;;;;;0.00;0.00;;;;;;;;;;1734611;28;20216;-63
2023/03/18 01:27:05;;;;;;;0.00;0.00;;;;;;;;;;1736392;28;20581;-62
2023/03/18 01:27:56;;;;;;;0.00;0.00;;;;;;;;;;1731026;28;20265;-63
2023/03/18 01:28:49;;;;;;;0.00;0.00;;;;;;;;;;1735775;28;20570;-63
2023/03/18 01:29:40;;;;;;;0.00;0.00;;;;;;;;;;1734920;28;20692;-62
2023/03/18 01:30:33;;;;;;;0.00;0.00;;;;;;;;;;1730295;28;20329;-62
2023/03/18 01:31:24;;;;;;;0.00;0.00;;;;;;;;;;1728794;28;20632;-62
2023/03/18 01:32:17;;;;;;;0.00;0.00;;;;;;;;;;1731886;28;20203;-63
2023/03/18 01:33:08;;;;;;;0.00;0.00;;;;;;;;;;1732530;28;20603;-62
2023/03/18 01:34:00;;;;;;;0.00;0.00;;;;;;;;;;1733605;28;20211;-63
2023/03/18 01:34:51;;;;;;;0.00;0.00;;;;;;;;;;1736738;28;20218;-62
2023/03/18 01:35:45;;;;;;;0.00;0.00;;;;;;;;;;1733616;28;20314;-62
2023/03/18 01:36:36;;;;;;;0.00;0.00;;;;;;;;;;1736395;28;20215;-62
2023/03/18 01:37:27;;;;;;;0.00;0.00;;;;;;;;;;1737951;28;20365;-62
2023/03/18 01:38:19;;;;;;;0.00;0.00;;;;;;;;;;1738131;28;20555;-62
2023/03/18 01:39:10;;;;;;;0.00;0.00;;;;;;;;;;1732201;28;20227;-62
2023/03/18 07:59:58;;;;;;;0.00;0.00;;;;;;;;;;1718906;28;20714;-63
2023/03/18 08:00:59;;;;;;;0.00;0.00;;;;;;;;;;1718845;28;20524;-61
2023/03/18 08:01:52;;;;;;;0.00;0.00;;;;;;;;;;1717538;28;20229;-65
2023/03/18 08:02:43;;;;;;;0.00;0.00;;;;;;;;;;1721555;28;20687;-65
2023/03/18 08:03:36;;;;;;;0.00;0.00;;;;;;;;;;1722608;28;20615;-65
2023/03/18 08:04:27;;;;;;;0.00;0.00;;;;;;;;;;1723720;28;20208;-64
2023/03/18 08:05:20;;;;;;;0.00;0.00;;;;;;;;;;1722410;28;20691;-64
2023/03/18 08:06:12;;;;;;;0.00;0.00;;;;;;;;;;1723003;28;20312;-64
2023/03/18 08:07:04;;;;;;;0.00;0.00;;;;;;;;;;1724364;28;20747;-64
2023/03/18 08:07:55;;;;;;;0.00;0.00;;;;;;;;;;1723918;28;20289;-65
2023/03/18 08:08:48;;;;;;;0.00;0.00;;;;;;;;;;1724551;28;20237;-65
2023/03/18 08:09:39;;;;;;;0.00;0.00;;;;;;;;;;1724217;28;20323;-65
2023/03/18 08:10:31;;;;;;;0.00;0.00;;;;;;;;;;1720249;28;20275;-65
2023/03/18 08:11:22;;;;;;;0.00;0.00;;;;;;;;;;1729637;28;20792;-65
2023/03/18 08:12:15;;;;;;;0.00;0.00;;;;;;;;;;1730852;28;20211;-65
2023/03/18 08:13:06;;;;;;;0.00;0.00;;;;;;;;;;1732153;28;20212;-65
2023/03/18 08:13:58;;;;;;;0.00;0.00;;;;;;;;;;1732398;28;20211;-65
2023/03/18 08:14:49;;;;;;;0.00;0.00;;;;;;;;;;1732078;28;20715;-65
2023/03/18 08:15:41;;;;;;;0.00;0.00;;;;;;;;;;1728093;28;20235;-65
2023/03/18 08:16:32;;;;;;;0.00;0.00;;;;;;;;;;1729197;28;20595;-65
2023/03/18 08:17:25;;;;;;;0.00;0.00;;;;;;;;;;1732490;28;20579;-65
2023/03/18 08:18:16;;;;;;;0.00;0.00;;;;;;;;;;1728562;28;20212;-65
2023/03/18 08:19:08;;;;;;;0.00;0.00;;;;;;;;;;1731349;28;20257;-65
2023/03/18 08:19:59;;;;;;;0.00;0.00;;;;;;;;;;1731791;28;20235;-64
2023/03/18 08:20:51;;;;;;;0.00;0.00;;;;;;;;;;1730068;28;20781;-63
2023/03/18 08:21:42;;;;;;;0.00;0.00;;;;;;;;;;1731532;28;20204;-63
2023/03/18 08:22:34;;;;;;;0.00;0.00;;;;;;;;;;1731002;28;20296;-63
2023/03/18 08:23:25;;;;;;;0.00;0.00;;;;;;;;;;1731721;28;20541;-62
2023/03/18 08:24:17;;;;;;;0.00;0.00;;;;;;;;;;1725540;28;20235;-63
2023/03/18 08:25:10;;;;;;;0.00;0.00;;;;;;;;;;1730392;28;20273;-64
2023/03/18 08:26:02;;;;;;;0.00;0.00;;;;;;;;;;1730450;28;20228;-63
2023/03/18 08:26:53;;;;;;;0.00;0.00;;;;;;;;;;1730443;28;20665;-64
2023/03/18 08:27:45;;;;;;;0.00;0.00;;;;;;;;;;1730161;28;20208;-64
2023/03/18 08:28:37;;;;;;;0.00;0.00;;;;;;;;;;1731685;28;20474;-64
2023/03/18 08:29:29;;;;;;;0.00;0.00;;;;;;;;;;1731675;28;20223;-64
2023/03/18 08:30:24;;;;;;;0.00;0.00;;;;;;;;;;1729843;28;20216;-64
2023/03/18 08:31:15;;;;;;;0.00;0.00;;;;;;;;;;1728216;28;20255;-64
2023/03/18 08:32:07;;;;;;;0.00;0.00;;;;;;;;;;1726842;28;20262;-64
2023/03/18 08:33:00;;;;;;;0.00;0.00;;;;;;;;;;1731607;28;20767;-64
2023/03/18 08:33:53;;;;;;;0.00;0.00;;;;;;;;;;1731999;28;20781;-64
2023/03/18 08:34:45;;;;;;;0.00;0.00;;;;;;;;;;1731246;28;20240;-64
2023/03/18 08:35:36;;;;;;;0.00;0.00;;;;;;;;;;1729520;28;20626;-64
2023/03/18 08:36:28;;;;;;;0.00;0.00;;;;;;;;;;1731426;28;20254;-62
2023/03/18 08:37:19;;;;;;;0.00;0.00;;;;;;;;;;1732233;28;20299;-64
2023/03/18 08:38:11;;;;;;;0.00;0.00;;;;;;;;;;1731507;28;20207;-64
2023/03/18 08:39:04;;;;;;;0.00;0.00;;;;;;;;;;1726689;28;20287;-63
2023/03/18 08:39:56;;;;;;;0.00;0.00;;;;;;;;;;1730352;28;20200;-63
2023/03/18 08:40:47;;;;;;;0.00;0.00;;;;;;;;;;1726754;28;20240;-63
2023/03/18 08:41:39;;;;;;;0.00;0.00;;;;;;;;;;1728963;28;20230;-63
2023/03/18 08:42:30;;;;;;;0.00;0.00;;;;;;;;;;1731700;28;20269;-64
2023/03/18 08:43:22;;;;;;;0.00;0.00;;;;;;;;;;1731685;28;20643;-64
2023/03/18 08:44:13;;;;;;;0.00;0.00;;;;;;;;;;1730998;28;20306;-64
2023/03/18 08:45:05;;;;;;;0.00;0.00;;;;;;;;;;1731225;28;20197;-64
2023/03/18 08:45:56;;;;;;;0.00;0.00;;;;;;;;;;1729534;28;20688;-64
2023/03/18 08:46:48;;;;;;;0.00;0.00;;;;;;;;;;1731247;28;20211;-64
2023/03/18 08:47:40;;;;;;;0.00;0.00;;;;;;;;;;1731803;28;20587;-64
2023/03/18 08:48:33;;;;;;;0.00;0.00;;;;;;;;;;1730705;28;20758;-63
2023/03/18 08:49:25;;;;;;;0.00;0.00;;;;;;;;;;1726331;28;20673;-64
2023/03/18 08:50:17;;;;;;;0.00;0.00;;;;;;;;;;1729336;28;20299;-64
2023/03/18 08:51:08;;;;;;;0.00;0.00;;;;;;;;;;1731077;28;20236;-64
2023/03/18 08:52:00;;;;;;;0.00;0.00;;;;;;;;;;1731897;28;20258;-64
2023/03/18 08:52:51;;;;;;;0.00;0.00;;;;;;;;;;1731516;28;20688;-63
2023/03/18 08:53:43;;;;;;;0.00;0.00;;;;;;;;;;1731770;28;20727;-64
2023/03/18 08:54:34;;;;;;;0.00;0.00;;;;;;;;;;1731478;28;20524;-63
2023/03/18 08:55:29;;;;;;;0.00;0.00;;;;;;;;;;1729779;28;20653;-63
2023/03/18 08:56:20;;;;;;;0.00;0.00;;;;;;;;;;1728434;28;20595;-64
2023/03/18 08:57:12;;;;;;;0.00;0.00;;;;;;;;;;1731480;28;20280;-64
2023/03/18 08:58:04;;;;;;;0.00;0.00;;;;;;;;;;1729962;28;20212;-64
2023/03/18 08:58:56;;;;;;;0.00;0.00;;;;;;;;;;1731848;28;20204;-63
2023/03/18 08:59:48;;;;;;;0.00;0.00;;;;;;;;;;1730489;28;20266;-64
2023/03/18 09:00:41;;;;;;;0.00;0.00;;;;;;;;;;1729065;28;20232;-63
2023/03/18 09:01:32;;;;;;;0.00;0.00;;;;;;;;;;1724960;28;20245;-63
2023/03/18 09:02:24;;;;;;;0.00;0.00;;;;;;;;;;1729753;28;20531;-64
2023/03/18 09:03:15;;;;;;;0.00;0.00;;;;;;;;;;1731831;28;20275;-64
2023/03/18 09:04:09;;;;;;;0.00;0.00;;;;;;;;;;1731687;28;20481;-64
2023/03/18 09:05:00;;;;;;;0.00;0.00;;;;;;;;;;1731292;28;20208;-64
2023/03/18 09:05:54;;;;;;;0.00;0.00;;;;;;;;;;1729410;28;20224;-64
2023/03/18 09:06:45;;;;;;;0.00;0.00;;;;;;;;;;1729962;28;20208;-63
2023/03/18 09:07:37;;;;;;;0.00;0.00;;;;;;;;;;1730141;28;20208;-63
2023/03/18 09:08:29;;;;;;;0.00;0.00;;;;;;;;;;1724736;28;20640;-63
2023/03/18 09:09:22;;;;;;;0.00;0.00;;;;;;;;;;1725772;28;20208;-64
2023/03/18 09:10:13;;;;;;;0.00;0.00;;;;;;;;;;1729465;28;20216;-63
2023/03/18 09:11:06;;;;;;;0.00;0.00;;;;;;;;;;1731314;28;20576;-63
2023/03/18 09:11:57;;;;;;;0.00;0.00;;;;;;;;;;1731284;28;20560;-64
2023/03/18 09:12:49;;;;;;;0.00;0.00;;;;;;;;;;1731483;28;20354;-63
2023/03/18 09:13:40;;;;;;;0.00;0.00;;;;;;;;;;1731747;28;20212;-63
2023/03/18 09:14:33;;;;;;;0.00;0.00;;;;;;;;;;1730934;28;20204;-64
2023/03/18 09:15:25;;;;;;;0.00;0.00;;;;;;;;;;1730096;28;20250;-64
2023/03/18 09:16:18;;;;;;;0.00;0.00;;;;;;;;;;1731468;28;20216;-63
2023/03/18 09:17:09;;;;;;;0.00;0.00;;;;;;;;;;1731730;28;20227;-63
2023/03/18 09:18:01;;;;;;;0.00;0.00;;;;;;;;;;1730958;28;20336;-64
2023/03/18 09:18:52;;;;;;;0.10;0.10;;;;;;;;;;1731431;28;20247;-63
2023/03/18 09:19:45;;;;;;;0.00;0.00;;;;;;;;;;1731028;28;20215;-64
2023/03/18 09:20:37;;;;;;;0.00;0.00;;;;;;;;;;1729439;28;20326;-64
2023/03/18 09:21:30;;;;;;;0.00;0.00;;;;;;;;;;1731048;28;20274;-63
2023/03/18 09:22:21;;;;;;;0.00;0.00;;;;;;;;;;1731513;28;20212;-64
2023/03/18 09:23:14;;;;;;;0.00;0.00;;;;;;;;;;1730759;28;20263;-64
2023/03/18 09:24:05;;;;;;;0.00;0.00;;;;;;;;;;1731675;28;20739;-63
2023/03/18 09:24:57;;;;;;;0.00;0.00;;;;;;;;;;1730986;28;20200;-63
2023/03/18 09:25:49;;;;;;;0.00;0.00;;;;;;;;;;1728882;28;20879;-63
2023/03/18 09:26:41;;;;;;;0.00;0.00;;;;;;;;;;1730935;28;20215;-64
2023/03/18 09:27:32;;;;;;;0.00;0.00;;;;;;;;;;1731674;28;20246;-64
2023/03/18 09:28:24;;;;;;;0.00;0.00;;;;;;;;;;1731345;28;20207;-64
2023/03/18 09:29:15;;;;;;;0.00;0.00;;;;;;;;;;1731941;28;20595;-64
2023/03/18 09:30:08;;;;;;;0.00;0.00;;;;;;;;;;1730818;28;20204;-64
2023/03/18 09:31:00;;;;;;;0.00;0.00;;;;;;;;;;1727430;28;20267;-64
2023/03/18 09:31:52;;;;;;;0.00;0.00;;;;;;;;;;1724501;28;20300;-64
2023/03/18 09:32:43;;;;;;;0.00;0.00;;;;;;;;;;1731160;28;20208;-64
2023/03/18 09:33:36;;;;;;;0.00;0.00;;;;;;;;;;1730542;28;20216;-64
2023/03/18 09:34:27;;;;;;;0.00;0.00;;;;;;;;;;1731047;28;20273;-63
2023/03/18 09:35:20;;;;;;;0.00;0.00;;;;;;;;;;1722837;28;20243;-63
2023/03/18 09:36:12;;;;;;;0.00;0.00;;;;;;;;;;1726815;28;20646;-64
2023/03/18 09:37:04;;;;;;;0.00;0.00;;;;;;;;;;1731364;28;20222;-64
2023/03/18 09:37:56;;;;;;;0.00;0.00;;;;;;;;;;1729689;28;20591;-64
2023/03/18 09:38:48;;;;;;;0.00;0.00;;;;;;;;;;1728668;28;20204;-64
2023/03/18 09:39:39;;;;;;;0.00;0.00;;;;;;;;;;1727653;28;20220;-63
2023/03/18 09:40:32;;;;;;;0.00;0.00;;;;;;;;;;1728675;28;20235;-63
2023/03/18 09:41:29;;;;;;;0.00;0.00;;;;;;;;;;1728210;28;20228;-64
2023/03/18 09:42:26;;;;;;;0.00;0.00;;;;;;;;;;1725134;28;20236;-64
2023/03/18 09:43:24;;;;;;;0.00;0.00;;;;;;;;;;1730289;28;20257;-64
2023/03/18 09:44:22;;;;;;;0.00;0.00;;;;;;;;;;1731757;28;20212;-64
2023/03/18 09:45:17;;;;;;;0.00;0.00;;;;;;;;;;1729869;28;20615;-63
2023/03/18 09:46:11;;;;;;;0.00;0.00;;;;;;;;;;1727537;28;20228;-63
2023/03/18 09:47:17;;;;;;;0.00;0.00;;;;;;;;;;1732388;28;20220;-64
2023/03/18 09:48:26;;;;;;;0.00;0.00;;;;;;;;;;1732076;28;20258;-64
2023/03/18 09:49:24;;;;;;;0.00;0.00;;;;;;;;;;1726145;28;20884;-64
2023/03/18 09:50:22;;;;;;;0.00;0.00;;;;;;;;;;1730759;28;20239;-63
2023/03/18 09:51:20;;;;;;;0.00;0.00;;;;;;;;;;1731114;28;20236;-64
2023/03/18 09:52:17;;;;;;;0.00;0.00;;;;;;;;;;1732102;28;20643;-64
2023/03/18 09:53:12;;;;;;;0.00;0.00;;;;;;;;;;1731934;28;20739;-64
2023/03/18 09:54:06;;;;;;;0.00;0.00;;;;;;;;;;1730418;28;20247;-64
2023/03/18 09:55:02;;;;;;;0.00;0.00;;;;;;;;;;1731330;28;20584;-63
2023/03/18 09:55:55;;;;;;;0.00;0.00;;;;;;;;;;1730035;28;20302;-63
2023/03/18 09:56:46;;;;;;;0.00;0.00;;;;;;;;;;1731745;28;20369;-63
2023/03/18 09:57:41;;;;;;;0.00;0.00;;;;;;;;;;1731840;28;20238;-63
2023/03/18 09:58:39;;;;;;;0.00;0.00;;;;;;;;;;1730944;28;20216;-63
2023/03/18 09:59:34;;;;;;;0.00;0.00;;;;;;;;;;1731614;28;20262;-63
2023/03/18 10:00:28;;;;;;;0.00;0.00;;;;;;;;;;1730149;28;20410;-63
2023/03/18 10:01:21;;;;;;;0.00;0.00;;;;;;;;;;1728267;28;20290;-63
2023/03/18 10:02:17;;;;;;;0.00;0.00;;;;;;;;;;1736529;28;20219;-64
2023/03/18 10:03:12;;;;;;;0.00;0.00;;;;;;;;;;1731578;28;20327;-63
2023/03/18 10:04:06;;;;;;;0.00;0.00;;;;;;;;;;1731822;28;20268;-63
2023/03/18 10:04:59;;;;;;;0.00;0.00;;;;;;;;;;1735432;28;20216;-64
2023/03/18 10:05:52;;;;;;;0.00;0.00;;;;;;;;;;1726408;28;20738;-63
2023/03/18 10:06:47;;;;;;;0.00;0.00;;;;;;;;;;1729792;28;20667;-64
2023/03/18 10:07:40;;;;;;;0.00;0.00;;;;;;;;;;1731821;28;20741;-64
2023/03/18 10:08:39;;;;;;;0.00;0.00;;;;;;;;;;1731597;28;20294;-63
2023/03/18 10:09:32;;;;;;;0.00;0.00;;;;;;;;;;1731419;28;20307;-63
2023/03/18 10:10:26;;;;;;;0.00;0.00;;;;;;;;;;1729780;28;20200;-63
2023/03/18 10:11:22;;;;;;;0.00;0.00;;;;;;;;;;1731809;28;20290;-63
2023/03/18 10:12:17;;;;;;;0.00;0.00;;;;;;;;;;1727829;28;20266;-63
2023/03/18 10:13:12;;;;;;;0.00;0.00;;;;;;;;;;1725710;28;20635;-63
2023/03/18 10:14:11;;;;;;;0.00;0.00;;;;;;;;;;1731709;28;20242;-63
2023/03/18 10:15:06;;;;;;;0.00;0.00;;;;;;;;;;1731045;28;20215;-63
2023/03/18 10:16:00;;;;;;;0.00;0.00;;;;;;;;;;1725620;28;20232;-63
2023/03/18 10:16:57;;;;;;;0.00;0.00;;;;;;;;;;1721432;28;20216;-63
2023/03/18 10:17:51;;;;;;;0.00;0.00;;;;;;;;;;1731578;28;20274;-63
2023/03/18 10:18:43;;;;;;;0.00;0.00;;;;;;;;;;1731782;28;20679;-64
2023/03/18 10:19:36;;;;;;;0.00;0.00;;;;;;;;;;1731623;28;20211;-63
2023/03/18 10:20:31;;;;;;;0.00;0.00;;;;;;;;;;1729174;28;20680;-62
2023/03/18 10:21:27;;;;;;;0.00;0.00;;;;;;;;;;1731826;28;20227;-64
2023/03/18 10:22:27;;;;;;;0.00;0.00;;;;;;;;;;1731594;28;20741;-64
2023/03/18 10:23:24;;;;;;;0.00;0.00;;;;;;;;;;1727979;28;20596;-64
2023/03/18 10:24:23;;;;;;;0.00;0.00;;;;;;;;;;1728022;28;20266;-64
2023/03/18 10:25:19;;;;;;;0.00;0.00;;;;;;;;;;1729137;28;20212;-63
2023/03/18 10:26:14;;;;;;;0.00;0.00;;;;;;;;;;1731296;28;20216;-63
2023/03/18 10:27:11;;;;;;;0.00;0.00;;;;;;;;;;1731403;28;20227;-63
2023/03/18 10:28:09;;;;;;;0.00;0.00;;;;;;;;;;1731289;28;20220;-63
2023/03/18 10:29:10;;;;;;;0.00;0.00;;;;;;;;;;1731326;28;20247;-63
2023/03/18 10:30:05;;;;;;;0.00;0.00;;;;;;;;;;1730699;28;20265;-63
2023/03/18 10:41:57;;;;;;;0.00;0.00;;;;;;;;;;1727164;28;20214;-64
2023/03/18 10:42:49;;;;;;;0.00;0.00;;;;;;;;;;1729386;28;20221;-64
2023/03/18 10:43:41;;;;;;;0.00;0.00;;;;;;;;;;1730661;28;20730;-64
2023/03/18 10:44:34;;;;;;;0.00;0.00;;;;;;;;;;1730388;28;20219;-64
2023/03/18 10:45:28;;;;;;;0.00;0.00;;;;;;;;;;1722323;28;20208;-64
2023/03/18 10:46:20;;;;;;;0.00;0.00;;;;;;;;;;1726292;28;20261;-64
2023/03/18 10:47:15;;;;;;;0.00;0.00;;;;;;;;;;1724704;28;20316;-64
2023/03/18 10:48:10;;;;;;;0.00;0.00;;;;;;;;;;1725625;28;20213;-65
2023/03/18 10:49:06;;;;;;;0.00;0.00;;;;;;;;;;1729940;28;20216;-64
2023/03/18 10:50:03;;;;;;;0.00;0.00;;;;;;;;;;1726031;28;21060;-64
2023/03/18 10:50:57;;;;;;;0.00;0.00;;;;;;;;;;1726549;28;20636;-66
2023/03/18 10:51:51;;;;;;;0.00;0.00;;;;;;;;;;1725785;28;20208;-63
2023/03/18 10:52:46;;;;;;;0.00;0.00;;;;;;;;;;1725491;28;20208;-63
2023/03/18 10:53:39;;;;;;;0.00;0.00;;;;;;;;;;1725944;28;20754;-64
2023/03/18 10:54:35;;;;;;;0.00;0.00;;;;;;;;;;1729114;28;20628;-64
2023/03/18 10:55:29;;;;;;;0.00;0.00;;;;;;;;;;1722268;28;20290;-63
2023/03/18 10:56:21;;;;;;;0.00;0.00;;;;;;;;;;1727595;28;20209;-64
2023/03/18 10:57:15;;;;;;;0.00;0.00;;;;;;;;;;1725879;28;20944;-63
2023/03/18 10:58:15;;;;;;;0.00;0.00;;;;;;;;;;1729375;28;20212;-64
2023/03/18 10:59:11;;;;;;;0.00;0.00;;;;;;;;;;1731316;28;20208;-63
2023/03/18 11:00:04;;;;;;;0.00;0.00;;;;;;;;;;1726399;28;20687;-64
2023/03/18 11:00:55;;;;;;;0.00;0.00;;;;;;;;;;1726531;28;20246;-63
2023/03/18 11:01:49;;;;;;;0.00;0.00;;;;;;;;;;1725577;28;22261;-63
2023/03/18 11:02:40;;;;;;;0.00;0.00;;;;;;;;;;1725340;28;20209;-63
2023/03/18 11:03:34;;;;;;;0.00;0.00;;;;;;;;;;1724947;28;20216;-63
2023/03/18 11:04:27;;;;;;;0.00;0.00;;;;;;;;;;1729922;28;20219;-63
2023/03/18 11:05:23;;;;;;;0.00;0.00;;;;;;;;;;1722663;28;20295;-63
2023/03/18 11:06:16;;;;;;;0.00;0.00;;;;;;;;;;1727813;28;20216;-63
2023/03/18 11:07:09;;;;;;;0.00;0.00;;;;;;;;;;1725727;28;20951;-63
2023/03/18 11:08:02;;;;;;;0.00;0.00;;;;;;;;;;1725162;28;20274;-63
2023/03/18 11:09:01;;;;;;;0.00;0.00;;;;;;;;;;1727835;28;20287;-63
2023/03/18 11:09:52;;;;;;;0.00;0.00;;;;;;;;;;1729467;28;20219;-63
2023/03/18 11:10:45;;;;;;;0.00;0.00;;;;;;;;;;1726501;28;20238;-63
2023/03/18 11:11:39;;;;;;;0.00;0.00;;;;;;;;;;1725028;28;20228;-63
2023/03/18 11:12:33;;;;;;;0.00;0.00;;;;;;;;;;1724863;28;20213;-63
2023/03/18 11:13:26;;;;;;;0.00;0.00;;;;;;;;;;1724496;28;20268;-63
2023/03/18 11:14:21;;;;;;;0.00;0.00;;;;;;;;;;1724849;28;20232;-64
2023/03/18 11:15:13;;;;;;;0.00;0.00;;;;;;;;;;1728274;28;20281;-63
2023/03/18 11:16:05;;;;;;;0.00;0.00;;;;;;;;;;1729782;28;20219;-63
2023/03/18 11:16:57;;;;;;;0.00;0.00;;;;;;;;;;1727900;28;20220;-63
2023/03/18 11:17:50;;;;;;;0.00;0.00;;;;;;;;;;1724115;28;20264;-62
2023/03/18 11:18:45;;;;;;;0.00;0.00;;;;;;;;;;1724583;28;20279;-63
2023/03/18 11:19:38;;;;;;;0.00;0.00;;;;;;;;;;1724574;28;20216;-63
2023/03/18 11:20:36;;;;;;;0.00;0.00;;;;;;;;;;1723563;28;20268;-63
2023/03/18 11:21:28;;;;;;;0.00;0.00;;;;;;;;;;1726062;28;20287;-63
2023/03/18 11:22:21;;;;;;;0.00;0.00;;;;;;;;;;1725511;28;20208;-64
2023/03/18 11:23:16;;;;;;;0.00;0.00;;;;;;;;;;1728831;28;20464;-64
2023/03/18 11:24:33;;;;;;;0.00;0.00;;;;;;;;;;1725594;28;20236;-64
2023/03/18 11:25:28;;;;;;;0.00;0.00;;;;;;;;;;1724603;28;20598;-64
2023/03/18 11:26:20;;;;;;;0.00;0.00;;;;;;;;;;1727416;28;20204;-64
2023/03/18 11:27:26;;;;;;;0.00;0.00;;;;;;;;;;1729763;28;20216;-64
2023/03/18 11:28:20;;;;;;;0.00;0.00;;;;;;;;;;1730882;28;20507;-64
2023/03/18 11:29:14;;;;;;;0.00;0.00;;;;;;;;;;1724841;28;20727;-64
2023/03/18 11:30:12;;;;;;;0.00;0.00;;;;;;;;;;1730267;28;20208;-64
2023/03/18 11:31:05;;;;;;;0.00;0.00;;;;;;;;;;1728105;28;20227;-63
2023/03/18 11:31:57;;;;;;;0.00;0.00;;;;;;;;;;1724976;28;20217;-63
2023/03/18 11:32:51;;;;;;;0.00;0.00;;;;;;;;;;1726987;28;20254;-64
2023/03/18 11:33:42;;;;;;;0.00;0.00;;;;;;;;;;1728651;28;20603;-63
2023/03/18 11:34:34;;;;;;;0.00;0.00;;;;;;;;;;1726372;28;20263;-64
2023/03/18 11:35:32;;;;;;;0.00;0.00;;;;;;;;;;1728979;28;20587;-63
2023/03/18 11:36:24;;;;;;;0.00;0.00;;;;;;;;;;1727677;28;20547;-64
2023/03/18 11:37:15;;;;;;;0.00;0.00;;;;;;;;;;1729704;28;20254;-64
2023/03/18 11:38:14;;;;;;;0.00;0.00;;;;;;;;;;1725213;28;20208;-64
2023/03/18 11:39:06;;;;;;;0.00;0.00;;;;;;;;;;1724272;28;20609;-64
2023/03/18 11:40:07;;;;;;;0.00;0.00;;;;;;;;;;1729428;28;20236;-64
2023/03/18 11:41:07;;;;;;;0.00;0.00;;;;;;;;;;1728229;28;20731;-64
2023/03/18 11:41:59;;;;;;;0.00;0.00;;;;;;;;;;1737617;28;20216;-63
2023/03/18 11:42:55;;;;;;;0.00;0.00;;;;;;;;;;1737562;28;20211;-63
2023/03/18 11:43:55;;;;;;;0.00;0.00;;;;;;;;;;1737298;28;20207;-64
2023/03/18 11:44:48;;;;;;;0.00;0.00;;;;;;;;;;1737786;28;20704;-63
2023/03/18 11:45:46;;;;;;;0.00;0.00;;;;;;;;;;1735580;28;21085;-64
2023/03/18 11:46:41;;;;;;;0.00;0.00;;;;;;;;;;1738571;28;20674;-63
2023/03/18 11:47:33;;;;;;;0.00;0.00;;;;;;;;;;1739369;28;20775;-63
2023/03/18 11:48:30;;;;;;;0.00;0.00;;;;;;;;;;1738814;28;20276;-64
2023/03/18 11:49:22;;;;;;;0.00;0.00;;;;;;;;;;1732726;28;20192;-64
2023/03/18 11:50:19;;;;;;;0.00;0.00;;;;;;;;;;1735951;28;20589;-63